createdAt,value
2019-01-19T00:08:52.384Z,98.54
2019-01-19T00:11:59.826Z,98.67
2019-01-19T00:14:26.256Z,98.48
2019-01-19T00:17:31.790Z,98.35
2019-01-19T00:20:37.837Z,98.60
2019-01-19T00:23:43.533Z,98.56
2019-01-19T00:26:50.961Z,98.63
2019-01-19T00:29:58.582Z,98.50
2019-01-19T00:33:04.260Z,98.62
2019-01-19T00:36:11.687Z,98.63
2019-01-19T00:39:37.112Z,98.72
2019-01-19T00:42:42.633Z,98.64
2019-01-19T00:45:48.168Z,98.53
2019-01-19T00:48:55.634Z,98.57
2019-01-19T00:52:01.159Z,98.77
2019-01-19T00:55:08.619Z,98.41
2019-01-19T01:01:43.120Z,98.63
2019-01-19T01:04:50.562Z,98.49
2019-01-19T01:08:18.721Z,98.79
2019-01-19T01:14:37.945Z,98.40
2019-01-19T01:17:45.364Z,98.76
2019-01-19T01:20:52.796Z,98.88
2019-01-19T01:24:18.206Z,98.68
2019-01-19T01:27:23.754Z,98.58
2019-01-19T01:30:50.921Z,98.55
2019-01-19T01:37:23.520Z,98.78
2019-01-19T01:40:30.980Z,98.73
2019-01-19T01:43:38.394Z,98.62
2019-01-19T01:46:43.932Z,98.77
2019-01-19T01:49:51.356Z,98.69
2019-01-19T01:52:56.892Z,98.87
2019-01-19T01:59:35.936Z,98.64
2019-01-19T02:09:11.099Z,98.77
2019-01-19T02:15:30.568Z,98.64
2019-01-19T02:18:36.112Z,98.68
2019-01-19T02:21:43.552Z,98.76
2019-01-19T02:24:51.021Z,98.73
2019-01-19T02:31:09.936Z,98.74
2019-01-19T02:34:15.472Z,98.62
2019-01-19T02:37:22.915Z,98.43
2019-01-19T02:40:30.343Z,98.75
2019-01-19T02:46:49.963Z,98.65
2019-01-19T02:49:57.426Z,98.65
2019-01-19T02:53:04.858Z,98.45
2019-01-19T02:56:12.287Z,98.66
2019-01-19T03:02:33.102Z,98.73
2019-01-19T03:05:40.531Z,98.75
2019-01-19T03:08:46.055Z,98.76
2019-01-19T03:12:11.465Z,98.72
2019-01-19T03:15:16.998Z,98.81
2019-01-19T03:18:42.423Z,98.73
2019-01-19T03:25:16.900Z,98.79
2019-01-19T03:28:22.439Z,98.73
2019-01-19T03:31:47.865Z,99.02
2019-01-19T03:34:55.307Z,98.95
2019-01-19T03:38:20.733Z,99.02
2019-01-19T03:41:28.154Z,98.90
2019-01-19T03:44:35.608Z,98.72
2019-01-19T03:48:01.033Z,98.69
2019-01-19T03:51:08.555Z,98.53
2019-01-19T03:54:15.999Z,98.66
2019-01-19T03:57:21.522Z,98.65
2019-01-19T04:00:28.976Z,98.56
2019-01-19T04:03:34.497Z,98.59
2019-01-19T04:06:40.032Z,98.44
2019-01-19T04:13:01.458Z,98.46
2019-01-19T04:16:08.898Z,98.43
2019-01-19T04:19:14.415Z,98.53
2019-01-19T04:22:21.863Z,98.42
2019-01-19T04:30:39.967Z,98.20
2019-01-19T04:33:05.722Z,98.31
2019-01-19T04:35:31.489Z,98.22
2019-01-19T04:37:57.233Z,98.51
2019-01-19T04:40:22.994Z,98.40
2019-01-19T04:42:48.872Z,98.38
2019-01-19T04:45:14.723Z,98.51
2019-01-19T04:47:40.497Z,98.01
2019-01-19T04:50:48.154Z,98.33
2019-01-19T04:53:14.356Z,98.02
2019-01-19T04:55:40.378Z,97.84
2019-01-19T04:58:06.140Z,97.95
2019-01-19T05:00:31.894Z,97.66
2019-01-19T05:02:57.663Z,97.93
2019-01-19T05:05:23.421Z,97.97
2019-01-19T05:07:49.193Z,97.82
2019-01-19T05:10:14.944Z,98.07
2019-01-19T05:12:40.722Z,98.03
2019-01-19T05:15:26.356Z,97.84
2019-01-19T05:20:30.246Z,97.99
2019-01-19T05:22:56.013Z,98.12
2019-01-19T05:25:21.767Z,97.92
2019-01-19T05:27:47.540Z,97.75
2019-01-19T05:30:33.186Z,97.62
2019-01-19T05:32:58.966Z,97.71
2019-01-19T05:35:24.710Z,97.36
2019-01-19T05:37:50.484Z,97.32
2019-01-19T05:40:16.235Z,97.29
2019-01-19T05:42:42.007Z,97.63
2019-01-19T05:45:49.441Z,97.55
2019-01-19T05:48:15.217Z,97.47
2019-01-19T05:50:40.972Z,97.48
2019-01-19T05:53:06.741Z,97.53
2019-01-19T05:55:32.502Z,97.74
2019-01-19T05:57:58.278Z,97.23
2019-01-19T06:03:51.185Z,97.01
2019-01-19T06:06:17.038Z,97.17
2019-01-19T06:08:42.807Z,97.11
2019-01-19T06:11:08.566Z,97.12
2019-01-19T06:13:34.346Z,96.83
2019-01-19T06:16:00.108Z,96.68
2019-01-19T06:20:59.547Z,97.03
2019-01-19T06:23:25.349Z,96.72
2019-01-19T06:25:51.099Z,96.66
2019-01-19T06:28:16.866Z,96.47
2019-01-19T06:30:42.651Z,96.46
2019-01-19T06:33:08.415Z,96.34
2019-01-19T06:35:34.187Z,96.21
2019-01-19T06:37:59.952Z,95.96
2019-01-19T06:40:25.724Z,96.18
2019-01-19T06:42:51.479Z,96.38
2019-01-19T06:45:58.931Z,96.39
2019-01-19T06:48:24.690Z,96.13
2019-01-19T06:50:50.472Z,96.32
2019-01-19T06:53:16.249Z,96.44
2019-01-19T06:55:42.019Z,96.33
2019-01-19T06:58:07.773Z,96.30
2019-01-19T07:00:33.539Z,96.62
2019-01-19T07:02:59.295Z,96.85
2019-01-19T07:05:25.066Z,96.23
2019-01-19T07:07:50.829Z,96.24
2019-01-19T07:13:30.241Z,95.99
2019-01-19T07:15:56.001Z,95.94
2019-01-19T07:18:21.774Z,95.93
2019-01-19T07:20:47.542Z,95.54
2019-01-19T07:23:13.304Z,95.38
2019-01-19T07:25:39.082Z,95.46
2019-01-19T07:28:04.838Z,95.31
2019-01-19T07:30:30.628Z,95.32
2019-01-19T07:32:56.391Z,95.49
2019-01-19T07:35:22.173Z,95.47
2019-01-19T07:37:47.933Z,95.35
2019-01-19T07:40:55.381Z,95.23
2019-01-19T07:48:42.069Z,95.38
2019-01-19T07:51:07.828Z,95.29
2019-01-19T07:53:33.581Z,95.38
2019-01-19T07:55:59.359Z,95.24
2019-01-19T07:58:25.118Z,95.06
2019-01-19T08:00:51.001Z,95.25
2019-01-19T08:03:16.868Z,95.29
2019-01-19T08:05:42.634Z,95.54
2019-01-19T08:08:08.402Z,95.25
2019-01-19T08:10:34.273Z,94.92
2019-01-19T08:13:00.027Z,95.03
2019-01-19T08:16:07.490Z,95.10
2019-01-19T08:18:33.300Z,95.16
2019-01-19T08:20:59.021Z,95.12
2019-01-19T08:23:26.196Z,95.26
2019-01-19T08:25:52.453Z,94.98
2019-01-19T08:28:18.217Z,94.80
2019-01-19T08:30:44.001Z,94.90
2019-01-19T08:33:09.772Z,95.08
2019-01-19T08:38:09.489Z,94.99
2019-01-19T08:40:35.310Z,95.05
2019-01-19T08:45:48.335Z,94.84
2019-01-19T08:51:01.515Z,94.84
2019-01-19T08:53:27.258Z,94.82
2019-01-19T08:55:53.054Z,94.79
2019-01-19T08:58:18.798Z,95.03
2019-01-19T09:00:44.562Z,94.84
2019-01-19T09:03:10.791Z,94.94
2019-01-19T09:05:36.539Z,94.92
2019-01-19T09:08:02.535Z,94.77
2019-01-19T09:10:28.297Z,95.06
2019-01-19T09:12:54.667Z,95.13
2019-01-19T09:16:03.443Z,94.85
2019-01-19T09:18:29.202Z,95.06
2019-01-19T09:20:54.961Z,95.09
2019-01-19T09:23:40.642Z,94.86
2019-01-19T09:26:06.416Z,94.84
2019-01-19T09:28:32.816Z,95.00
2019-01-19T09:30:59.843Z,95.04
2019-01-19T09:33:25.613Z,94.69
2019-01-19T09:35:51.370Z,94.68
2019-01-19T09:38:17.143Z,94.79
2019-01-19T09:40:42.900Z,94.29
2019-01-19T09:43:08.683Z,94.47
2019-01-19T09:45:34.433Z,94.40
2019-01-19T09:48:00.204Z,94.11
2019-01-19T09:50:26.004Z,94.02
2019-01-19T09:52:51.738Z,93.96
2019-01-19T09:55:17.486Z,93.53
2019-01-19T09:57:43.359Z,93.61
2019-01-19T10:00:50.797Z,93.77
2019-01-19T10:03:16.563Z,93.50
2019-01-19T10:05:42.319Z,93.27
2019-01-19T10:08:08.086Z,93.26
2019-01-19T10:10:33.850Z,93.41
2019-01-19T10:12:59.625Z,93.23
2019-01-19T10:15:25.387Z,93.21
2019-01-19T10:17:51.161Z,93.08
2019-01-19T10:20:36.812Z,92.83
2019-01-19T10:23:02.681Z,92.35
2019-01-19T10:25:28.446Z,92.82
2019-01-19T10:27:54.210Z,91.90
2019-01-19T10:30:39.875Z,92.11
2019-01-19T10:35:39.101Z,91.92
2019-01-19T10:40:58.376Z,91.43
2019-01-19T10:43:24.133Z,91.34
2019-01-19T10:45:49.887Z,91.07
2019-01-19T10:48:15.741Z,90.82
2019-01-19T10:50:41.517Z,90.34
2019-01-19T10:53:07.277Z,90.20
2019-01-19T10:55:33.049Z,89.72
2019-01-19T10:57:58.822Z,90.09
2019-01-19T11:01:06.312Z,89.82
2019-01-19T11:03:32.054Z,90.18
2019-01-19T11:05:57.958Z,89.90
2019-01-19T11:08:24.080Z,89.91
2019-01-19T11:10:51.652Z,89.67
2019-01-19T11:13:17.400Z,89.91
2019-01-19T11:15:43.997Z,89.34
2019-01-19T11:18:09.832Z,89.06
2019-01-19T11:20:35.616Z,88.16
2019-01-19T11:23:01.400Z,87.81
2019-01-19T11:26:08.911Z,88.03
2019-01-19T11:28:34.656Z,87.79
2019-01-19T11:31:00.419Z,88.10
2019-01-19T11:33:26.201Z,87.76
2019-01-19T11:35:51.968Z,87.21
2019-01-19T11:38:20.243Z,86.16
2019-01-19T11:40:45.413Z,86.30
2019-01-19T11:43:11.432Z,87.13
2019-01-19T11:45:58.995Z,86.64
2019-01-19T11:48:26.643Z,85.57
2019-01-19T11:50:52.435Z,86.10
2019-01-19T11:53:18.174Z,86.05
2019-01-19T11:55:43.957Z,85.68
2019-01-19T11:58:09.703Z,84.92
2019-01-19T12:01:17.194Z,84.52
2019-01-19T12:03:42.943Z,86.15
2019-01-19T12:06:09.500Z,84.98
2019-01-19T12:08:35.271Z,85.13
2019-01-19T12:11:01.022Z,84.53
2019-01-19T12:13:26.781Z,84.65
2019-01-19T12:15:52.533Z,84.89
2019-01-19T12:18:18.320Z,84.25
2019-01-19T12:20:44.081Z,83.87
2019-01-19T12:23:09.880Z,84.64
2019-01-19T12:28:42.951Z,83.13
2019-01-19T12:31:08.722Z,82.85
2019-01-19T12:33:34.506Z,84.42
2019-01-19T12:36:00.365Z,82.53
2019-01-19T12:38:26.843Z,83.65
2019-01-19T12:40:53.805Z,82.95
2019-01-19T12:43:19.565Z,82.11
2019-01-19T12:46:27.015Z,81.94
2019-01-19T12:48:52.779Z,83.39
2019-01-19T12:51:18.660Z,83.51
2019-01-19T12:53:44.394Z,83.07
2019-01-19T12:56:10.166Z,83.31
2019-01-19T12:58:35.961Z,83.33
2019-01-19T13:01:01.741Z,81.01
2019-01-19T13:03:27.514Z,80.29
2019-01-19T13:06:34.944Z,80.90
2019-01-19T13:09:00.722Z,80.23
2019-01-19T13:12:06.242Z,80.71
2019-01-19T13:15:13.706Z,80.79
2019-01-19T13:18:21.175Z,79.57
2019-01-19T13:21:26.719Z,79.36
2019-01-19T13:24:34.164Z,79.04
2019-01-19T13:27:41.597Z,79.73
2019-01-19T13:30:47.142Z,80.08
2019-01-19T13:33:54.598Z,79.82
2019-01-19T13:37:02.069Z,79.49
2019-01-19T13:40:09.518Z,77.91
2019-01-19T13:43:15.044Z,78.51
2019-01-19T13:46:22.493Z,78.30
2019-01-19T13:49:29.951Z,77.82
2019-01-19T13:52:37.396Z,78.57
2019-01-19T13:56:02.818Z,78.37
2019-01-19T13:59:10.249Z,77.01
2019-01-19T14:02:19.320Z,79.56
2019-01-19T14:05:27.073Z,78.93
2019-01-19T14:08:34.501Z,78.45
2019-01-19T14:11:59.932Z,77.90
2019-01-19T14:15:07.363Z,78.20
2019-01-19T14:18:12.908Z,78.77
2019-01-19T14:21:18.455Z,79.41
2019-01-19T14:24:25.883Z,79.63
2019-01-19T14:27:33.325Z,79.52
2019-01-19T14:30:38.855Z,79.29
2019-01-19T14:33:46.320Z,80.37
2019-01-19T14:36:51.961Z,80.25
2019-01-19T14:39:57.485Z,79.26
2019-01-19T14:43:03.017Z,79.19
2019-01-19T14:46:08.542Z,79.71
2019-01-19T14:49:15.998Z,78.32
2019-01-19T14:52:21.579Z,77.81
2019-01-19T14:55:27.103Z,78.40
2019-01-19T14:58:34.549Z,78.41
2019-01-19T15:11:33.955Z,79.85
2019-01-19T15:14:39.591Z,81.01
2019-01-19T15:17:47.018Z,81.43
2019-01-19T15:20:52.570Z,81.58
2019-01-19T15:24:00.006Z,82.62
2019-01-19T15:30:34.507Z,82.26
2019-01-19T15:33:41.968Z,82.36
2019-01-19T15:36:49.398Z,82.54
2019-01-19T15:39:56.855Z,83.07
2019-01-19T15:43:02.373Z,83.48
2019-01-19T15:46:09.815Z,83.79
2019-01-19T15:52:30.409Z,84.60
2019-01-19T15:55:37.854Z,85.13
2019-01-19T15:58:45.303Z,85.84
2019-01-19T16:01:50.825Z,86.77
2019-01-19T16:04:56.391Z,86.35
2019-01-19T16:08:03.808Z,86.14
2019-01-19T16:11:09.347Z,86.66
2019-01-19T16:14:16.828Z,87.09
2019-01-19T16:17:24.264Z,86.92
2019-01-19T16:20:49.684Z,86.71
2019-01-19T16:23:57.123Z,86.94
2019-01-19T16:27:22.532Z,87.41
2019-01-19T16:30:28.115Z,87.44
2019-01-19T16:33:53.486Z,87.02
2019-01-19T16:36:59.034Z,86.87
2019-01-19T16:40:04.557Z,86.95
2019-01-19T16:43:10.101Z,86.77
2019-01-19T16:46:17.539Z,86.57
2019-01-19T16:49:24.961Z,86.84
2019-01-19T16:52:50.393Z,87.42
2019-01-19T16:59:09.484Z,87.57
2019-01-19T17:02:16.924Z,87.79
2019-01-19T17:05:42.327Z,87.92
2019-01-19T17:12:01.133Z,87.76
2019-01-19T17:15:08.569Z,87.58
2019-01-19T17:18:14.098Z,87.97
2019-01-19T17:21:39.505Z,87.56
2019-01-19T17:25:04.919Z,87.58
2019-01-19T17:28:10.453Z,87.25
2019-01-19T17:31:15.973Z,87.12
2019-01-19T17:37:22.635Z,87.75
2019-01-19T17:40:28.360Z,87.60
2019-01-19T17:43:35.810Z,87.34
2019-01-19T17:46:41.331Z,87.87
2019-01-19T17:49:49.176Z,87.52
2019-01-19T17:52:56.645Z,87.89
2019-01-19T17:56:02.359Z,88.01
2019-01-19T17:59:09.801Z,88.05
2019-01-19T18:02:15.621Z,88.00
2019-01-19T18:05:23.069Z,87.92
2019-01-19T18:08:28.622Z,88.01
2019-01-19T18:11:37.242Z,88.02
2019-01-19T18:17:56.681Z,88.28
2019-01-19T18:21:04.135Z,88.12
2019-01-19T18:24:10.788Z,88.22
2019-01-19T18:27:36.154Z,88.22
2019-01-19T18:30:42.661Z,88.40
2019-01-19T18:34:08.175Z,88.42
2019-01-19T18:43:40.620Z,88.97
2019-01-19T18:46:46.183Z,89.27
2019-01-19T18:49:51.716Z,90.34
2019-01-19T18:53:01.954Z,90.17
2019-01-19T18:56:09.406Z,89.55
2019-01-19T18:59:14.944Z,89.82
2019-01-19T19:02:20.454Z,89.46
2019-01-19T19:05:25.993Z,89.72
2019-01-19T19:08:33.443Z,90.25
2019-01-19T19:11:40.903Z,89.52
2019-01-19T19:14:48.331Z,89.89
2019-01-19T19:21:07.122Z,89.33
2019-01-19T19:24:14.559Z,89.70
2019-01-19T19:27:20.113Z,88.92
2019-01-19T19:30:45.755Z,89.51
2019-01-19T19:33:53.255Z,88.82
2019-01-19T19:36:58.786Z,88.94
2019-01-19T19:40:09.973Z,89.61
2019-01-19T19:43:13.655Z,89.31
2019-01-19T19:46:39.076Z,89.28
2019-01-19T19:49:46.516Z,89.61
2019-01-19T19:52:12.286Z,89.62
2019-01-19T19:54:38.052Z,90.26
2019-01-19T19:57:03.913Z,90.13
2019-01-19T19:59:29.697Z,90.04
2019-01-19T20:01:55.469Z,89.92
2019-01-19T20:04:21.234Z,90.09
2019-01-19T20:07:28.674Z,90.22
2019-01-19T20:09:54.435Z,89.98
2019-01-19T20:12:20.201Z,90.07
2019-01-19T20:14:45.974Z,90.61
2019-01-19T20:17:11.730Z,90.43
2019-01-19T20:19:37.511Z,90.77
2019-01-19T20:22:03.364Z,90.25
2019-01-19T20:24:29.154Z,90.47
2019-01-19T20:26:54.919Z,90.48
2019-01-19T20:29:20.715Z,90.55
2019-01-19T20:31:46.481Z,90.67
2019-01-19T20:34:12.254Z,90.70
2019-01-19T20:36:38.022Z,91.28
2019-01-19T20:39:45.476Z,91.27
2019-01-19T20:42:11.224Z,91.15
2019-01-19T20:44:37.003Z,91.40
2019-01-19T20:47:44.437Z,91.88
2019-01-19T20:50:51.881Z,92.14
2019-01-19T20:53:17.633Z,92.31
2019-01-19T20:55:43.406Z,92.12
2019-01-19T20:58:09.166Z,92.33
2019-01-19T21:00:34.950Z,92.36
2019-01-19T21:03:00.702Z,92.48
2019-01-19T21:05:46.376Z,92.65
2019-01-19T21:08:12.128Z,92.65
2019-01-19T21:10:37.913Z,92.28
2019-01-19T21:13:03.668Z,92.69
2019-01-19T21:15:29.435Z,92.65
2019-01-19T21:17:55.836Z,92.66
2019-01-19T21:20:22.876Z,92.61
2019-01-19T21:22:48.634Z,92.79
2019-01-19T21:25:14.423Z,92.64
2019-01-19T21:31:07.298Z,92.69
2019-01-19T21:33:33.042Z,92.79
2019-01-19T21:35:58.813Z,92.79
2019-01-19T21:38:24.600Z,92.50
2019-01-19T21:40:50.380Z,92.31
2019-01-19T21:43:16.136Z,92.48
2019-01-19T21:45:41.912Z,92.58
2019-01-19T21:48:07.673Z,92.61
2019-01-19T21:50:33.457Z,92.76
2019-01-19T21:52:59.229Z,92.71
2019-01-19T21:55:25.006Z,92.69
2019-01-19T21:57:50.761Z,93.10
2019-01-19T22:00:38.320Z,92.82
2019-01-19T22:03:04.085Z,92.94
2019-01-19T22:05:31.105Z,93.04
2019-01-19T22:07:57.514Z,92.92
2019-01-19T22:13:10.614Z,93.06
2019-01-19T22:15:36.359Z,93.01
2019-01-19T22:18:02.147Z,92.78
2019-01-19T22:20:27.905Z,92.52
2019-01-19T22:22:53.697Z,92.41
2019-01-19T22:25:19.445Z,92.87
2019-01-19T22:30:23.312Z,92.33
2019-01-19T22:37:56.662Z,92.52
2019-01-19T22:40:22.426Z,92.60
2019-01-19T22:46:01.526Z,92.66
2019-01-19T22:48:34.766Z,92.70
2019-01-19T22:51:00.517Z,92.00
2019-01-19T22:53:26.280Z,93.27
2019-01-19T22:55:52.044Z,92.76
2019-01-19T22:58:17.812Z,92.75
2019-01-19T23:01:23.336Z,91.83
2019-01-19T23:03:49.108Z,92.17
2019-01-19T23:06:14.869Z,92.40
2019-01-19T23:08:40.649Z,92.20
2019-01-19T23:11:06.400Z,92.56
2019-01-19T23:13:32.180Z,92.12
2019-01-19T23:15:57.937Z,92.24
2019-01-19T23:18:23.713Z,92.41
2019-01-19T23:20:49.470Z,92.14
2019-01-19T23:23:15.250Z,92.13
2019-01-19T23:25:41.005Z,92.63
2019-01-19T23:28:06.796Z,92.26
2019-01-19T23:30:32.655Z,92.27
2019-01-19T23:32:58.481Z,91.97
2019-01-19T23:35:24.270Z,92.19
2019-01-19T23:38:03.148Z,92.46
2019-01-19T23:40:17.696Z,92.31
2019-01-19T23:42:47.421Z,92.26
2019-01-19T23:45:11.388Z,92.10
2019-01-19T23:47:37.143Z,91.76
2019-01-19T23:53:16.723Z,92.14
2019-01-19T23:55:42.470Z,92.52
2019-01-19T23:58:08.245Z,92.24
